createdAt,value
2022-09-01T00:01:47.639Z,13.40
2022-09-01T00:04:17.632Z,13.40
2022-09-01T00:06:44.603Z,13.30
2022-09-01T00:09:16.096Z,13.00
2022-09-01T00:11:47.887Z,12.80
2022-09-01T00:14:30.421Z,12.60
2022-09-01T00:17:00.464Z,12.60
2022-09-01T00:19:29.013Z,12.80
2022-09-01T00:21:56.268Z,12.90
2022-09-01T00:24:26.042Z,13.00
2022-09-01T00:26:53.471Z,13.10
2022-09-01T00:29:21.127Z,13.00
2022-09-01T00:31:48.302Z,13.00
2022-09-01T00:34:15.966Z,12.90
2022-09-01T00:36:44.409Z,13.00
2022-09-01T00:39:11.512Z,13.10
2022-09-01T00:41:39.906Z,13.10
2022-09-01T00:44:11.953Z,13.10
2022-09-01T00:46:49.812Z,13.20
2022-09-01T00:49:34.983Z,13.40
2022-09-01T00:52:13.581Z,13.40
2022-09-01T00:54:44.837Z,13.50
2022-09-01T00:57:13.176Z,13.50
2022-09-01T00:59:55.372Z,13.70
2022-09-01T01:02:22.959Z,13.50
2022-09-01T01:04:50.658Z,13.60
2022-09-01T01:07:17.681Z,13.60
2022-09-01T01:09:46.033Z,13.60
2022-09-01T01:12:13.957Z,13.60
2022-09-01T01:14:41.764Z,13.50
2022-09-01T01:17:13.078Z,13.50
2022-09-01T01:20:02.599Z,13.40
2022-09-01T01:23:00.110Z,13.50
2022-09-01T01:25:28.631Z,13.40
2022-09-01T01:28:27.033Z,13.40
2022-09-01T01:31:05.991Z,13.50
2022-09-01T01:33:42.773Z,13.50
2022-09-01T01:36:19.762Z,13.30
2022-09-01T01:38:49.497Z,13.20
2022-09-01T01:41:19.881Z,13.10
2022-09-01T01:43:48.290Z,12.90
2022-09-01T01:46:19.195Z,12.90
2022-09-01T01:48:47.523Z,13.00
2022-09-01T01:51:21.252Z,13.20
2022-09-01T01:53:52.730Z,13.40
2022-09-01T01:56:22.747Z,13.60
2022-09-01T01:58:56.187Z,13.60
2022-09-01T02:01:25.386Z,13.70
2022-09-01T02:03:54.800Z,13.70
2022-09-01T02:06:25.085Z,13.70
2022-09-01T02:08:58.012Z,13.80
2022-09-01T02:11:28.827Z,13.80
2022-09-01T02:13:57.209Z,13.70
2022-09-01T02:16:27.028Z,13.60
2022-09-01T02:18:54.686Z,13.70
2022-09-01T02:21:24.668Z,13.70
2022-09-01T02:24:03.473Z,13.50
2022-09-01T02:26:34.772Z,13.50
2022-09-01T02:29:04.768Z,13.40
2022-09-01T02:31:40.781Z,13.40
2022-09-01T02:34:14.038Z,13.50
2022-09-01T02:36:49.476Z,13.40
2022-09-01T02:39:23.290Z,13.30
2022-09-01T02:41:50.846Z,13.20
2022-09-01T02:44:23.146Z,13.30
2022-09-01T02:46:50.615Z,13.40
2022-09-01T02:49:25.872Z,13.30
2022-09-01T02:51:58.048Z,13.60
2022-09-01T02:54:25.913Z,13.40
2022-09-01T02:56:54.812Z,13.50
2022-09-01T02:59:26.390Z,13.50
2022-09-01T03:01:54.655Z,13.50
2022-09-01T03:04:24.206Z,13.40
2022-09-01T03:06:55.010Z,13.40
2022-09-01T03:09:23.101Z,13.30
2022-09-01T03:11:52.564Z,13.10
2022-09-01T03:14:20.327Z,13.10
2022-09-01T03:16:47.816Z,13.00
2022-09-01T03:19:15.162Z,13.00
2022-09-01T03:21:44.378Z,13.00
2022-09-01T03:24:16.763Z,12.90
2022-09-01T03:26:46.462Z,12.70
2022-09-01T03:29:18.060Z,12.70
2022-09-01T03:31:45.174Z,12.70
2022-09-01T03:34:12.616Z,12.70
2022-09-01T03:36:50.314Z,12.60
2022-09-01T03:39:24.133Z,12.60
2022-09-01T03:41:50.997Z,12.70
2022-09-01T03:44:17.819Z,12.70
2022-09-01T03:46:45.610Z,12.70
2022-09-01T03:49:15.405Z,12.80
2022-09-01T03:51:45.046Z,12.70
2022-09-01T03:54:13.351Z,12.80
2022-09-01T03:56:42.083Z,12.80
2022-09-01T03:59:17.402Z,13.00
2022-09-01T04:01:46.739Z,12.90
2022-09-01T04:04:15.329Z,12.90
2022-09-01T04:06:44.428Z,12.90
2022-09-01T04:09:11.685Z,12.80
2022-09-01T04:11:45.902Z,12.80
2022-09-01T04:14:15.148Z,12.90
2022-09-01T04:17:02.856Z,12.80
2022-09-01T04:19:33.192Z,12.90
2022-09-01T04:22:01.597Z,12.90
2022-09-01T04:24:34.815Z,13.00
2022-09-01T04:27:03.229Z,12.90
2022-09-01T04:29:31.969Z,12.90
2022-09-01T04:32:07.163Z,12.90
2022-09-01T04:34:38.238Z,12.90
2022-09-01T04:37:14.918Z,12.80
2022-09-01T04:39:51.451Z,12.80
2022-09-01T04:42:24.070Z,12.80
2022-09-01T04:44:52.649Z,12.80
2022-09-01T04:47:19.871Z,12.70
2022-09-01T04:49:50.923Z,12.70
2022-09-01T04:52:18.775Z,12.60
2022-09-01T04:54:45.904Z,12.60
2022-09-01T04:57:13.419Z,12.50
2022-09-01T04:59:40.973Z,12.50
2022-09-01T05:02:09.529Z,12.30
2022-09-01T05:04:37.087Z,12.20
2022-09-01T05:07:05.285Z,12.00
2022-09-01T05:09:38.233Z,11.90
2022-09-01T05:12:15.959Z,11.90
2022-09-01T05:14:48.617Z,11.90
2022-09-01T05:17:19.310Z,12.00
2022-09-01T05:19:51.176Z,12.00
2022-09-01T05:22:22.272Z,12.10
2022-09-01T05:25:11.737Z,12.10
2022-09-01T05:27:41.895Z,12.10
2022-09-01T05:30:09.281Z,11.90
2022-09-01T05:32:39.935Z,11.70
2022-09-01T05:35:08.325Z,11.70
2022-09-01T05:37:38.705Z,11.70
2022-09-01T05:40:07.744Z,11.70
2022-09-01T05:42:39.298Z,11.80
2022-09-01T05:45:08.076Z,12.00
2022-09-01T05:47:36.625Z,12.10
2022-09-01T05:50:05.490Z,12.10
2022-09-01T05:52:34.439Z,12.20
2022-09-01T05:55:01.787Z,12.50
2022-09-01T05:57:36.599Z,12.70
2022-09-01T06:00:13.936Z,12.90
2022-09-01T06:02:42.880Z,13.00
2022-09-01T06:05:15.275Z,13.10
2022-09-01T06:07:42.960Z,13.20
2022-09-01T06:10:11.633Z,13.30
2022-09-01T06:12:38.683Z,13.30
2022-09-01T06:15:15.882Z,13.50
2022-09-01T06:17:47.137Z,13.60
2022-09-01T06:20:18.184Z,13.50
2022-09-01T06:22:45.720Z,13.70
2022-09-01T06:25:12.637Z,13.80
2022-09-01T06:27:46.097Z,13.90
2022-09-01T06:30:23.699Z,13.90
2022-09-01T06:33:02.254Z,14.00
2022-09-01T06:35:30.625Z,14.10
2022-09-01T06:37:59.388Z,14.10
2022-09-01T06:40:39.815Z,14.10
2022-09-01T06:43:08.360Z,14.20
2022-09-01T06:45:44.814Z,14.30
2022-09-01T06:48:16.617Z,14.30
2022-09-01T06:53:35.193Z,14.50
2022-09-01T06:56:05.141Z,14.50
2022-09-01T06:58:33.482Z,14.60
2022-09-01T07:01:05.781Z,14.80
2022-09-01T07:03:34.041Z,14.80
2022-09-01T07:09:20.685Z,14.90
2022-09-01T07:12:27.014Z,14.90
2022-09-01T07:17:50.193Z,15.10
2022-09-01T07:20:24.640Z,15.20
2022-09-01T07:23:09.683Z,15.30
2022-09-01T07:28:37.107Z,15.40
2022-09-01T07:33:55.684Z,15.60
2022-09-01T07:42:31.579Z,15.30
2022-09-01T07:45:58.335Z,16.00
2022-09-01T07:51:36.360Z,16.20
2022-09-01T07:54:05.491Z,16.40
2022-09-01T07:56:36.304Z,16.60
2022-09-01T07:59:07.055Z,16.60
2022-09-01T08:01:35.921Z,16.80
2022-09-01T08:04:03.787Z,16.90
2022-09-01T08:06:37.942Z,17.00
2022-09-01T08:09:11.759Z,17.10
2022-09-01T08:12:01.235Z,17.20
2022-09-01T08:14:26.933Z,17.20
2022-09-01T08:16:54.041Z,17.20
2022-09-01T08:19:23.142Z,17.40
2022-09-01T08:22:09.846Z,17.60
2022-09-01T08:24:49.027Z,17.60
2022-09-01T08:27:16.241Z,17.80
2022-09-01T08:29:43.455Z,17.90
2022-09-01T08:32:14.093Z,17.90
2022-09-01T08:34:40.952Z,18.10
2022-09-01T08:37:07.998Z,18.10
2022-09-01T08:39:35.540Z,18.40
2022-09-01T08:42:05.905Z,18.40
2022-09-01T08:44:51.715Z,18.40
2022-09-01T08:47:28.834Z,18.40
2022-09-01T08:50:00.466Z,18.40
2022-09-01T08:53:09.073Z,18.50
2022-09-01T08:55:49.928Z,18.90
2022-09-01T08:58:18.073Z,18.90
2022-09-01T09:00:57.920Z,19.20
2022-09-01T09:03:41.486Z,19.30
2022-09-01T09:06:15.159Z,19.50
2022-09-01T09:08:58.810Z,19.60
2022-09-01T09:11:55.960Z,19.60
2022-09-01T09:14:45.092Z,19.80
2022-09-01T09:17:14.362Z,19.80
2022-09-01T09:19:43.400Z,20.00
2022-09-01T09:22:16.084Z,20.30
2022-09-01T09:25:03.811Z,20.40
2022-09-01T09:27:42.448Z,20.50
2022-09-01T09:30:23.347Z,20.80
2022-09-01T09:33:30.794Z,21.10
2022-09-01T09:35:47.529Z,21.30
2022-09-01T09:38:28.550Z,21.50
2022-09-01T09:41:26.058Z,21.50
2022-09-01T09:44:29.918Z,21.70
2022-09-01T09:46:57.825Z,21.90
2022-09-01T09:49:35.955Z,22.30
2022-09-01T09:52:16.454Z,22.50
2022-09-01T09:55:06.105Z,22.60
2022-09-01T09:57:39.892Z,23.10
2022-09-01T10:00:32.294Z,22.90
2022-09-01T10:03:08.113Z,22.90
2022-09-01T10:05:51.735Z,22.60
2022-09-01T10:08:28.412Z,22.70
2022-09-01T10:10:58.275Z,23.30
2022-09-01T10:13:31.505Z,23.00
2022-09-01T10:16:05.500Z,23.20
2022-09-01T10:18:44.895Z,23.30
2022-09-01T10:21:16.791Z,23.50
2022-09-01T10:23:44.901Z,23.80
2022-09-01T10:26:34.870Z,23.70
2022-09-01T10:29:06.424Z,23.30
2022-09-01T10:31:35.323Z,23.60
2022-09-01T10:34:05.460Z,24.10
2022-09-01T10:36:35.573Z,24.40
2022-09-01T10:39:08.915Z,24.30
2022-09-01T10:42:00.774Z,24.20
2022-09-01T10:44:36.637Z,24.70
2022-09-01T10:47:14.517Z,24.30
2022-09-01T10:50:09.745Z,24.20
2022-09-01T10:52:43.892Z,24.20
2022-09-01T10:55:25.949Z,24.70
2022-09-01T11:01:40.326Z,24.50
2022-09-01T11:03:52.199Z,24.00
2022-09-01T11:07:11.635Z,23.00
2022-09-01T11:09:41.606Z,22.40
2022-09-01T11:12:29.245Z,22.30
2022-09-01T11:15:22.687Z,21.80
2022-09-01T11:17:52.508Z,21.80
2022-09-01T11:20:34.411Z,21.80
2022-09-01T11:23:09.723Z,22.00
2022-09-01T11:25:48.573Z,22.80
2022-09-01T11:28:41.653Z,23.80
2022-09-01T11:31:08.917Z,24.00
2022-09-01T11:34:13.539Z,24.50
2022-09-01T11:36:50.267Z,25.60
2022-09-01T11:39:18.998Z,26.10
2022-09-01T11:42:11.866Z,26.90
2022-09-01T11:44:50.569Z,26.60
2022-09-01T11:47:22.163Z,25.20
2022-09-01T11:49:59.181Z,25.10
2022-09-01T11:52:30.954Z,24.60
2022-09-01T11:54:58.754Z,24.20
2022-09-01T11:57:30.948Z,23.90
2022-09-01T12:00:00.169Z,23.50
2022-09-01T12:02:33.685Z,23.20
2022-09-01T12:05:28.900Z,23.10
2022-09-01T12:07:56.693Z,23.20
2022-09-01T12:10:35.366Z,23.20
2022-09-01T12:13:18.177Z,23.60
2022-09-01T12:16:16.375Z,24.90
2022-09-01T12:18:47.496Z,25.70
2022-09-01T12:21:26.681Z,26.40
2022-09-01T12:23:54.715Z,26.00
2022-09-01T12:26:26.193Z,25.50
2022-09-01T12:28:53.519Z,25.40
2022-09-01T12:31:26.244Z,26.10
2022-09-01T12:33:54.862Z,26.20
2022-09-01T12:36:30.443Z,26.50
2022-09-01T12:39:17.411Z,26.80
2022-09-01T12:41:47.215Z,26.50
2022-09-01T12:44:31.967Z,26.30
2022-09-01T12:47:02.471Z,26.70
2022-09-01T12:49:50.841Z,25.90
2022-09-01T12:52:27.483Z,26.10
2022-09-01T12:55:03.575Z,25.30
2022-09-01T12:57:39.842Z,25.60
2022-09-01T13:00:12.550Z,24.50
2022-09-01T13:02:43.080Z,23.60
2022-09-01T13:05:33.619Z,23.10
2022-09-01T13:08:07.654Z,23.30
2022-09-01T13:10:41.187Z,24.50
2022-09-01T13:13:11.881Z,25.10
2022-09-01T13:15:42.635Z,24.40
2022-09-01T13:18:10.699Z,23.40
2022-09-01T13:20:38.412Z,23.50
2022-09-01T13:23:05.267Z,23.60
2022-09-01T13:25:32.127Z,24.00
2022-09-01T13:28:02.890Z,24.70
2022-09-01T13:30:30.106Z,25.00
2022-09-01T13:35:44.641Z,25.90
2022-09-01T13:38:11.877Z,26.20
2022-09-01T13:40:38.766Z,26.40
2022-09-01T13:43:06.287Z,26.70
2022-09-01T13:45:33.687Z,27.00
2022-09-01T13:48:17.022Z,26.80
2022-09-01T13:53:33.140Z,24.30
2022-09-01T13:56:00.213Z,23.80
2022-09-01T13:58:27.178Z,23.60
2022-09-01T14:00:54.116Z,23.60
2022-09-01T14:03:23.510Z,24.30
2022-09-01T14:05:50.783Z,25.20
2022-09-01T14:08:21.424Z,26.20
2022-09-01T14:10:51.321Z,26.70
2022-09-01T14:13:20.708Z,26.50
2022-09-01T14:15:48.376Z,26.90
2022-09-01T14:18:17.394Z,27.40
2022-09-01T14:20:47.050Z,27.50
2022-09-01T14:23:15.244Z,26.60
2022-09-01T14:25:48.485Z,26.20
2022-09-01T14:28:16.582Z,26.20
2022-09-01T14:33:17.955Z,25.90
2022-09-01T14:35:48.168Z,26.20
2022-09-01T14:38:15.703Z,26.00
2022-09-01T14:40:43.842Z,25.90
2022-09-01T14:43:14.360Z,26.50
2022-09-01T14:45:47.450Z,27.60
2022-09-01T14:48:19.033Z,28.20
2022-09-01T14:50:48.876Z,28.10
2022-09-01T14:53:16.260Z,27.90
2022-09-01T14:55:44.026Z,27.70
2022-09-01T14:58:11.290Z,27.60
2022-09-01T15:00:39.165Z,27.70
2022-09-01T15:03:06.155Z,28.10
2022-09-01T15:05:39.016Z,26.40
2022-09-01T15:08:08.522Z,26.80
2022-09-01T15:10:36.520Z,27.90
2022-09-01T15:13:04.215Z,27.00
2022-09-01T15:15:32.944Z,26.50
2022-09-01T15:18:01.217Z,25.50
2022-09-01T15:20:48.498Z,24.40
2022-09-01T15:23:18.675Z,23.80
2022-09-01T15:25:46.162Z,23.30
2022-09-01T15:28:13.282Z,23.00
2022-09-01T15:30:40.767Z,22.80
2022-09-01T15:33:13.208Z,22.60
2022-09-01T15:35:42.354Z,23.50
2022-09-01T15:38:10.305Z,24.80
2022-09-01T15:40:43.044Z,25.40
2022-09-01T15:43:11.527Z,26.40
2022-09-01T15:45:39.239Z,26.50
2022-09-01T15:48:06.102Z,26.10
2022-09-01T15:50:33.011Z,25.70
2022-09-01T15:53:02.894Z,25.00
2022-09-01T15:55:37.071Z,24.10
2022-09-01T15:58:03.933Z,23.50
2022-09-01T16:00:30.811Z,23.00
2022-09-01T16:02:57.749Z,22.80
2022-09-01T16:05:25.283Z,22.70
2022-09-01T16:07:52.989Z,22.70
2022-09-01T16:10:20.976Z,22.60
2022-09-01T16:12:48.319Z,22.40
2022-09-01T16:15:17.734Z,22.70
2022-09-01T16:17:47.580Z,23.30
2022-09-01T16:20:24.334Z,24.00
2022-09-01T16:23:12.125Z,24.60
2022-09-01T16:25:39.379Z,24.90
2022-09-01T16:28:18.477Z,25.10
2022-09-01T16:30:49.261Z,24.80
2022-09-01T16:33:20.005Z,23.70
2022-09-01T16:36:03.117Z,23.00
2022-09-01T16:38:35.005Z,23.00
2022-09-01T16:41:43.928Z,23.40
2022-09-01T16:44:16.655Z,23.60
2022-09-01T16:46:59.856Z,23.40
2022-09-01T16:49:50.349Z,23.00
2022-09-01T16:52:26.542Z,22.80
2022-09-01T16:55:26.447Z,23.00
2022-09-01T16:58:11.847Z,23.80
2022-09-01T17:00:54.562Z,24.60
2022-09-01T17:03:42.532Z,25.20
2022-09-01T17:06:26.267Z,25.70
2022-09-01T17:09:08.867Z,25.30
2022-09-01T17:11:49.390Z,24.90
2022-09-01T17:14:37.071Z,24.70
2022-09-01T17:17:11.786Z,24.00
2022-09-01T17:19:40.990Z,23.40
2022-09-01T17:22:12.600Z,22.90
2022-09-01T17:24:42.703Z,22.90
2022-09-01T17:27:26.510Z,23.20
2022-09-01T17:29:57.043Z,23.30
2022-09-01T17:32:51.767Z,23.60
2022-09-01T17:35:42.724Z,23.20
2022-09-01T17:38:30.765Z,22.60
2022-09-01T17:41:36.543Z,21.90
2022-09-01T17:44:29.846Z,21.20
2022-09-01T17:47:17.721Z,20.70
2022-09-01T17:49:58.607Z,20.40
2022-09-01T17:52:54.567Z,20.20
2022-09-01T17:55:28.100Z,20.00
2022-09-01T17:58:19.166Z,19.80
2022-09-01T18:01:00.342Z,19.70
2022-09-01T18:03:52.007Z,19.50
2022-09-01T18:06:41.931Z,19.40
2022-09-01T18:09:10.084Z,19.30
2022-09-01T18:11:53.076Z,19.10
2022-09-01T18:14:33.001Z,19.00
2022-09-01T18:17:33.355Z,18.80
2022-09-01T18:20:26.515Z,18.70
2022-09-01T18:23:02.285Z,18.50
2022-09-01T18:25:41.904Z,18.30
2022-09-01T18:28:09.438Z,18.20
2022-09-01T18:30:53.253Z,18.10
2022-09-01T18:33:33.048Z,17.90
2022-09-01T18:36:07.105Z,17.70
2022-09-01T18:38:55.772Z,17.50
2022-09-01T18:41:42.527Z,17.30
2022-09-01T18:44:38.420Z,17.10
2022-09-01T18:47:15.418Z,16.80
2022-09-01T18:50:00.679Z,16.70
2022-09-01T18:53:03.309Z,16.50
2022-09-01T18:55:47.997Z,16.40
2022-09-01T18:58:53.430Z,16.20
2022-09-01T19:01:34.574Z,16.10
2022-09-01T19:04:18.881Z,15.90
2022-09-01T19:07:13.945Z,15.80
2022-09-01T19:09:55.432Z,15.70
2022-09-01T19:12:42.007Z,15.60
2022-09-01T19:15:37.452Z,15.50
2022-09-01T19:18:19.723Z,15.50
2022-09-01T19:21:25.447Z,15.40
2022-09-01T19:24:10.367Z,15.30
2022-09-01T19:26:48.247Z,15.20
2022-09-01T19:29:24.222Z,15.20
2022-09-01T19:31:57.655Z,15.20
2022-09-01T19:34:30.210Z,15.10
2022-09-01T19:37:00.251Z,15.00
2022-09-01T19:39:34.354Z,14.90
2022-09-01T19:42:25.459Z,14.70
2022-09-01T19:45:17.356Z,14.70
2022-09-01T19:47:50.126Z,14.70
2022-09-01T19:50:39.245Z,14.70
2022-09-01T19:53:14.948Z,14.90
2022-09-01T19:55:57.631Z,15.30
2022-09-01T19:58:31.385Z,15.30
2022-09-01T20:01:01.500Z,15.30
2022-09-01T20:03:36.257Z,15.40
2022-09-01T20:06:06.645Z,15.70
2022-09-01T20:08:43.501Z,16.00
2022-09-01T20:11:20.307Z,15.90
2022-09-01T20:14:03.535Z,15.70
2022-09-01T20:16:35.656Z,15.60
2022-09-01T20:19:12.098Z,15.50
2022-09-01T20:21:45.717Z,15.50
2022-09-01T20:24:38.368Z,15.60
2022-09-01T20:27:32.969Z,15.60
2022-09-01T20:30:07.858Z,15.80
2022-09-01T20:32:35.070Z,15.70
2022-09-01T20:35:13.071Z,15.60
2022-09-01T20:38:01.011Z,15.50
2022-09-01T20:40:35.579Z,15.40
2022-09-01T20:43:19.371Z,15.30
2022-09-01T20:45:46.580Z,15.10
2022-09-01T20:48:16.694Z,15.10
2022-09-01T20:51:01.459Z,15.10
2022-09-01T20:53:46.795Z,14.90
2022-09-01T20:56:21.625Z,14.90
2022-09-01T20:59:01.405Z,14.80
2022-09-01T21:01:55.886Z,14.70
2022-09-01T21:04:48.907Z,15.00
2022-09-01T21:07:31.616Z,14.90
2022-09-01T21:10:22.768Z,14.80
2022-09-01T21:13:03.063Z,14.70
2022-09-01T21:15:44.703Z,14.60
2022-09-01T21:18:46.703Z,14.90
2022-09-01T21:21:51.926Z,14.70
2022-09-01T21:24:19.417Z,14.50
2022-09-01T21:26:48.941Z,14.50
2022-09-01T21:29:38.611Z,14.40
2022-09-01T21:32:05.634Z,14.40
2022-09-01T21:34:32.515Z,14.40
2022-09-01T21:36:59.525Z,14.50
2022-09-01T21:39:26.863Z,14.50
2022-09-01T21:41:53.973Z,14.60
2022-09-01T21:44:21.590Z,14.60
2022-09-01T21:46:48.959Z,14.60
2022-09-01T21:49:16.016Z,14.60
2022-09-01T21:51:43.229Z,14.70
2022-09-01T21:54:10.156Z,14.70
2022-09-01T21:56:37.761Z,14.70
2022-09-01T21:59:04.840Z,14.70
2022-09-01T22:01:35.447Z,14.70
2022-09-01T22:04:04.423Z,14.60
2022-09-01T22:06:32.490Z,14.80
2022-09-01T22:09:02.824Z,14.70
2022-09-01T22:11:45.836Z,14.50
2022-09-01T22:14:13.619Z,14.30
2022-09-01T22:16:40.648Z,14.40
2022-09-01T22:19:07.487Z,14.30
2022-09-01T22:21:36.099Z,14.20
2022-09-01T22:24:03.424Z,14.10
2022-09-01T22:26:32.199Z,13.90
2022-09-01T22:29:01.246Z,13.90
2022-09-01T22:31:30.487Z,13.90
2022-09-01T22:33:58.522Z,14.00
2022-09-01T22:36:35.408Z,14.00
2022-09-01T22:39:02.320Z,14.00
2022-09-01T22:41:31.207Z,13.90
2022-09-01T22:44:00.703Z,13.90
2022-09-01T22:46:29.237Z,13.80
2022-09-01T22:48:57.378Z,13.80
2022-09-01T22:51:24.919Z,13.70
2022-09-01T22:53:53.349Z,13.60
2022-09-01T22:56:27.114Z,13.60
2022-09-01T22:58:55.981Z,13.40
2022-09-01T23:01:26.900Z,13.30
2022-09-01T23:03:56.234Z,13.30
2022-09-01T23:06:28.159Z,13.00
2022-09-01T23:08:56.929Z,12.90
2022-09-01T23:11:25.006Z,12.80
2022-09-01T23:13:52.520Z,12.70
2022-09-01T23:16:20.435Z,12.80
2022-09-01T23:18:49.012Z,12.80
2022-09-01T23:21:19.710Z,12.90
2022-09-01T23:23:47.143Z,12.90
2022-09-01T23:26:15.821Z,12.90
2022-09-01T23:28:44.343Z,12.90
2022-09-01T23:31:16.876Z,13.20
2022-09-01T23:33:44.313Z,13.40
2022-09-01T23:36:13.901Z,13.70
2022-09-01T23:38:41.939Z,13.90
2022-09-01T23:41:12.123Z,13.90
2022-09-01T23:43:39.245Z,13.80
2022-09-01T23:46:07.875Z,13.80
2022-09-01T23:48:34.846Z,13.80
2022-09-01T23:51:09.032Z,13.70
2022-09-01T23:53:37.355Z,13.80
2022-09-01T23:56:10.760Z,13.70
2022-09-01T23:58:38.372Z,13.60
